Equa B190 at Pointe Noire on Sep 19th 2022, gear collapse on landing

Last Update: September 21, 2022 / 15:34:49 GMT/Zulu time

Bookmark this article
Incident Facts

Date of incident
Sep 19, 2022

Classification
Accident

Flight number
E7-512

Aircraft Registration
TN-AIQ

Aircraft Type
BEECH C-12J

ICAO Type Designator
B190

Airport ICAO Code
FCPP

An Equaflight Service Beech 1900C, registration TN-AIQ performing flight E7-512 from Brazzaville to Pointe Noire (Congo) with 15 people on board, landed on Pointe Noire's runway 17 after sunset (about 18:30L/17:30Z) when the right hand main gear collapsed causing the aircraft to veer right before coming to a stop. There were no injuries, the aircraft sustained substantial damage however.

The aircraft had been chartered by an oil company to bring the body of an employee, who had died in Morocco, and the family home.

Pointe Noire's runway 17 features an ILS, runway 35 a RNAV or VOR/DME approach.

Possibly related NOTAMs:
A0965/21 NOTAMR A0449/21
Q) FCCC/QLFAS/I /BO /A /000/999/0449S01153E005
A) FCPP B) 2106291558 C) 2109282359 EST
E) RWY 17 SEQUENCED FLG APCH LGT U/S

A0966/21 NOTAMR A0450/21
Q) FCCC/QLAAS/IV/NBO/A /000/999/0449S01153E003
A) FCPP B) 2106291617 C) 2109282359 EST
E) RWY 17 SIMPLE ALS U/S ON THE FIRST 300 METERS.

A0959/21 NOTAMR A0463/21
Q) FCCC/QFAXX/IV/NBO/A /000/999/0449S01153E005
A) FCPP B) 2106291141 C) 2108282359 EST
E) WHEN LDG ON RWY 17, EXIT VIA TWY A, THEN TURN LEFT AND TAXIING. REFERS ONLY TO TWY A AND B EQUIPPED WITH NIGHT MARKINGS. CTN ADVISED.

Metars:
FCPP 200000Z 17008KT 7000 -DZ SCT006 OVC020 24/22 Q1012 TEMPO B KN006 OVC020=
FCPP 191800Z 20009KT 9999 FEW010 BKN023 25/22 Q1011 NOSIG=
FCPP 191700Z 18010KT 9999 SCT014 OVC023 25/22 Q1011 NOSIG=
FCPP 191600Z 19010KT 9999 SCT014 OVC023 26/22 Q1011 NOSIG=
FCPP 191500Z 20011KT 9999 SCT015 27/22 Q1011 NOSIG=
FCPP 191400Z 19012KT 9999 SCT014 BKN023 26/22 Q1011 NOSIG=
FCPP 191300Z 19011KT 9999 SCT013 OVC023 27/22 Q1011 NOSIG=
FCPP 191200Z 20013KT 9999 SCT013 OVC025 27/22 Q1012 NOSIG=
FCPP 191100Z 19010KT 9999 SCT014 OVC025 25/23 Q1013 NOSIG=
FCPP 191000Z 18008KT 7000 -DZ SCT009 OVC021 24/23 Q1014 NOSIG=
Incident Facts

Date of incident
Sep 19, 2022

Classification
Accident

Flight number
E7-512

Aircraft Registration
TN-AIQ

Aircraft Type
BEECH C-12J

ICAO Type Designator
B190

Airport ICAO Code
FCPP

This article is published under license from Avherald.com. © of text by Avherald.com.
Article source

You can read 2 more free articles without a subscription.

Subscribe now and continue reading without any limits!

Are you a subscriber? Login
Subscribe

Read unlimited articles and receive our daily update briefing. Gain better insights into what is happening in commercial aviation safety.

Free newsletter

Want to know more and stay ahead? Get our free weekly newsletter and join 5377 existing subscribers.

By subscribing, you accept our terms and conditions and confirm that you've read our privacy policy.

Send tip

Support AeroInside by sending a small tip amount.

Newest articles

Subscribe today

Are you researching aviation incidents? Get access to AeroInside Insights, unlimited read access and receive the daily newsletter.

Pick your plan and subscribe

Partner

Blockaviation logo

A new way to document and demonstrate airworthiness compliance and aircraft value. Find out more.

Virtual Speech logo

ELITE Simulation Solutions is a leading global provider of Flight Simulation Training Devices, IFR training software as well as flight controls and related services. Find out more.

Get updates

Never miss an article from AeroInside. Subscribe to our free weekly newsletter and join 5377 existing subscribers.

By subscribing, you accept our terms and conditions and that you've read our privacy policy.

AeroInside Blog
Popular aircraft
Airbus A320
Boeing 737-800
Boeing 737-800 MAX
Popular airlines
American Airlines
United
Delta
Air Canada
Lufthansa
British Airways